createdAt,value
2019-02-11T00:01:13.642Z,4.70
2019-02-11T00:03:41.491Z,4.60
2019-02-11T00:06:09.332Z,4.70
2019-02-11T00:08:37.208Z,4.80
2019-02-11T00:11:08.019Z,4.80
2019-02-11T00:13:36.003Z,4.70
2019-02-11T00:16:03.944Z,4.70
2019-02-11T00:18:31.809Z,4.70
2019-02-11T00:20:59.621Z,4.60
2019-02-11T00:23:27.490Z,4.60
2019-02-11T00:25:55.429Z,4.70
2019-02-11T00:28:23.322Z,4.70
2019-02-11T00:30:51.171Z,4.70
2019-02-11T00:33:19.015Z,4.70
2019-02-11T00:35:46.858Z,4.70
2019-02-11T00:38:14.770Z,4.70
2019-02-11T00:40:42.728Z,4.70
2019-02-11T00:43:18.690Z,4.70
2019-02-11T00:45:40.184Z,4.80
2019-02-11T00:48:08.038Z,4.80
2019-02-11T00:50:36.021Z,4.80
2019-02-11T00:53:03.942Z,4.80
2019-02-11T00:55:31.902Z,4.80
2019-02-11T00:57:59.737Z,4.70
2019-02-11T01:00:27.561Z,4.80
2019-02-11T01:02:55.387Z,4.70
2019-02-11T01:05:23.238Z,4.70
2019-02-11T01:07:51.079Z,4.70
2019-02-11T01:10:18.961Z,4.70
2019-02-11T01:12:46.806Z,4.70
2019-02-11T01:15:14.648Z,4.70
2019-02-11T01:17:42.473Z,4.70
2019-02-11T01:20:10.287Z,4.60
2019-02-11T01:22:38.302Z,4.70
2019-02-11T01:25:06.156Z,4.70
2019-02-11T01:27:33.984Z,4.60
2019-02-11T01:30:01.847Z,4.60
2019-02-11T01:32:29.678Z,4.70
2019-02-11T01:34:57.502Z,4.70
2019-02-11T01:37:25.432Z,4.70
2019-02-11T01:39:53.277Z,4.70
2019-02-11T01:42:21.178Z,4.70
2019-02-11T01:44:49.029Z,4.70
2019-02-11T01:47:16.928Z,4.70
2019-02-11T01:49:44.751Z,4.70
2019-02-11T01:52:12.609Z,4.70
2019-02-11T01:54:40.412Z,4.70
2019-02-11T01:57:08.265Z,4.70
2019-02-11T01:59:36.200Z,4.70
2019-02-11T02:02:04.026Z,4.70
2019-02-11T02:04:31.876Z,4.70
2019-02-11T02:06:59.822Z,4.60
2019-02-11T02:09:27.779Z,4.60
2019-02-11T02:11:55.613Z,4.70
2019-02-11T02:14:23.486Z,4.60
2019-02-11T02:16:51.308Z,4.60
2019-02-11T02:19:19.150Z,4.60
2019-02-11T02:21:46.967Z,4.70
2019-02-11T02:24:14.800Z,4.70
2019-02-11T02:26:42.638Z,4.70
2019-02-11T02:29:10.499Z,4.70
2019-02-11T02:31:38.362Z,4.60
2019-02-11T02:34:06.196Z,4.60
2019-02-11T02:36:34.030Z,4.70
2019-02-11T02:39:01.884Z,4.70
2019-02-11T02:41:29.728Z,4.70
2019-02-11T02:43:57.589Z,4.80
2019-02-11T02:46:25.426Z,4.80
2019-02-11T02:48:53.261Z,4.70
2019-02-11T02:51:21.092Z,4.70
2019-02-11T02:53:48.913Z,4.80
2019-02-11T02:56:16.776Z,4.80
2019-02-11T02:58:44.622Z,4.80
2019-02-11T03:01:12.462Z,4.70
2019-02-11T03:03:40.370Z,4.80
2019-02-11T03:06:08.257Z,4.70
2019-02-11T03:08:36.244Z,4.70
2019-02-11T03:11:04.096Z,4.70
2019-02-11T03:13:31.958Z,4.60
2019-02-11T03:15:59.820Z,4.50
2019-02-11T03:18:27.646Z,4.60
2019-02-11T03:20:55.507Z,4.60
2019-02-11T03:23:23.360Z,4.60
2019-02-11T03:25:51.186Z,4.60
2019-02-11T03:28:19.023Z,4.60
2019-02-11T03:30:46.867Z,4.60
2019-02-11T03:33:14.735Z,4.50
2019-02-11T03:35:42.638Z,4.50
2019-02-11T03:38:10.509Z,4.40
2019-02-11T03:40:38.480Z,4.40
2019-02-11T03:43:06.338Z,4.40
2019-02-11T03:45:34.145Z,4.30
2019-02-11T03:48:02.001Z,4.30
2019-02-11T03:50:29.836Z,4.30
2019-02-11T03:52:57.654Z,4.30
2019-02-11T03:55:25.535Z,4.40
2019-02-11T03:57:53.368Z,4.40
2019-02-11T04:00:21.232Z,4.40
2019-02-11T04:02:49.045Z,4.40
2019-02-11T04:05:16.916Z,4.40
2019-02-11T04:07:44.754Z,4.40
2019-02-11T04:10:12.617Z,4.50
2019-02-11T04:12:40.546Z,4.50
2019-02-11T04:15:08.404Z,4.50
2019-02-11T04:17:36.219Z,4.50
2019-02-11T04:20:04.038Z,4.50
2019-02-11T04:22:31.882Z,4.50
2019-02-11T04:24:59.859Z,4.50
2019-02-11T04:27:27.804Z,4.50
2019-02-11T04:29:55.728Z,4.50
2019-02-11T04:32:23.672Z,4.50
2019-02-11T04:34:51.541Z,4.60
2019-02-11T04:37:19.373Z,4.60
2019-02-11T04:39:47.209Z,4.50
2019-02-11T04:42:15.078Z,4.50
2019-02-11T04:44:42.899Z,4.50
2019-02-11T04:47:10.748Z,4.40
2019-02-11T04:49:38.560Z,4.50
2019-02-11T04:52:06.414Z,4.50
2019-02-11T04:54:34.357Z,4.50
2019-02-11T04:57:02.280Z,4.40
2019-02-11T04:59:30.130Z,4.40
2019-02-11T05:01:57.983Z,4.50
2019-02-11T05:04:25.790Z,4.50
2019-02-11T05:06:53.753Z,4.50
2019-02-11T05:09:21.577Z,4.40
2019-02-11T05:11:51.362Z,4.30
2019-02-11T05:14:19.247Z,4.30
2019-02-11T05:16:47.097Z,4.30
2019-02-11T05:19:14.943Z,4.20
2019-02-11T05:21:42.833Z,4.30
2019-02-11T05:24:10.700Z,4.20
2019-02-11T05:26:38.841Z,4.20
2019-02-11T05:29:06.794Z,4.10
2019-02-11T05:31:34.643Z,4.10
2019-02-11T05:34:02.494Z,4.10
2019-02-11T05:36:30.347Z,4.00
2019-02-11T05:38:58.216Z,4.00
2019-02-11T05:41:26.073Z,3.90
2019-02-11T05:43:53.924Z,3.80
2019-02-11T05:46:21.955Z,3.80
2019-02-11T05:48:49.864Z,3.80
2019-02-11T05:51:17.682Z,3.80
2019-02-11T05:53:45.640Z,3.70
2019-02-11T05:56:13.489Z,3.70
2019-02-11T05:58:41.347Z,3.70
2019-02-11T06:01:09.200Z,3.70
2019-02-11T06:03:37.052Z,3.70
2019-02-11T06:06:04.911Z,3.60
2019-02-11T06:08:32.791Z,3.60
2019-02-11T06:11:00.654Z,3.60
2019-02-11T06:13:28.472Z,3.50
2019-02-11T06:15:56.313Z,3.50
2019-02-11T06:18:24.264Z,3.50
2019-02-11T06:20:52.080Z,3.60
2019-02-11T06:23:19.946Z,3.50
2019-02-11T06:25:47.810Z,3.50
2019-02-11T06:28:15.638Z,3.40
2019-02-11T06:30:43.510Z,3.40
2019-02-11T06:33:11.355Z,3.30
2019-02-11T06:35:39.170Z,3.30
2019-02-11T06:38:07.067Z,3.30
2019-02-11T06:40:34.920Z,3.30
2019-02-11T06:43:02.753Z,3.30
2019-02-11T06:45:30.576Z,3.30
2019-02-11T06:47:58.408Z,3.40
2019-02-11T06:50:26.266Z,3.40
2019-02-11T06:52:54.146Z,3.40
2019-02-11T06:55:21.997Z,3.30
2019-02-11T06:57:49.867Z,3.40
2019-02-11T07:00:17.801Z,3.40
2019-02-11T07:02:45.655Z,3.40
2019-02-11T07:05:13.552Z,3.40
2019-02-11T07:07:41.396Z,3.50
2019-02-11T07:10:09.215Z,3.50
2019-02-11T07:12:37.158Z,3.50
2019-02-11T07:15:05.073Z,3.60
2019-02-11T07:17:32.906Z,3.60
2019-02-11T07:20:00.759Z,3.50
2019-02-11T07:22:28.612Z,3.60
2019-02-11T07:24:56.542Z,3.60
2019-02-11T07:27:24.410Z,3.50
2019-02-11T07:29:52.288Z,3.50
2019-02-11T07:32:20.126Z,3.50
2019-02-11T07:34:47.946Z,3.40
2019-02-11T07:37:15.795Z,3.40
2019-02-11T07:39:43.651Z,3.30
2019-02-11T07:42:29.489Z,3.30
2019-02-11T07:45:00.005Z,3.30
2019-02-11T07:47:27.851Z,3.30
2019-02-11T07:49:55.766Z,3.40
2019-02-11T07:52:26.965Z,3.30
2019-02-11T07:54:53.186Z,3.30
2019-02-11T07:57:21.099Z,3.40
2019-02-11T07:59:48.947Z,3.40
2019-02-11T08:02:16.787Z,3.30
2019-02-11T08:04:44.615Z,3.30
2019-02-11T08:07:12.453Z,3.30
2019-02-11T08:09:40.298Z,3.40
2019-02-11T08:12:08.171Z,3.50
2019-02-11T08:14:36.133Z,3.60
2019-02-11T08:17:03.970Z,3.70
2019-02-11T08:19:31.911Z,3.80
2019-02-11T08:21:59.798Z,3.80
2019-02-11T08:24:27.666Z,3.80
2019-02-11T08:26:55.535Z,3.80
2019-02-11T08:29:23.487Z,3.90
2019-02-11T08:31:51.339Z,4.00
2019-02-11T08:34:19.191Z,4.20
2019-02-11T08:36:47.071Z,4.20
2019-02-11T08:39:14.965Z,4.30
2019-02-11T08:41:42.869Z,4.40
2019-02-11T08:44:10.765Z,4.50
2019-02-11T08:46:38.670Z,4.50
2019-02-11T08:49:06.499Z,4.60
2019-02-11T08:51:34.520Z,4.70
2019-02-11T08:54:02.367Z,4.90
2019-02-11T08:56:30.250Z,5.00
2019-02-11T08:58:58.177Z,4.90
2019-02-11T09:01:26.050Z,4.90
2019-02-11T09:03:53.878Z,5.00
2019-02-11T09:06:21.723Z,5.10
2019-02-11T09:08:49.575Z,5.10
2019-02-11T09:11:17.456Z,5.20
2019-02-11T09:13:45.403Z,5.20
2019-02-11T09:16:13.260Z,5.30
2019-02-11T09:18:41.078Z,5.50
2019-02-11T09:21:08.936Z,5.50
2019-02-11T09:23:36.820Z,5.50
2019-02-11T09:26:04.711Z,5.60
2019-02-11T09:28:32.546Z,5.60
2019-02-11T09:31:00.409Z,5.40
2019-02-11T09:33:28.247Z,5.40
2019-02-11T09:35:56.105Z,5.40
2019-02-11T09:38:23.987Z,5.30
2019-02-11T09:40:51.809Z,5.30
2019-02-11T09:43:19.640Z,5.30
2019-02-11T09:45:47.514Z,5.40
2019-02-11T09:48:15.358Z,5.60
2019-02-11T09:50:43.325Z,5.70
2019-02-11T09:53:11.185Z,5.90
2019-02-11T09:55:39.199Z,6.00
2019-02-11T09:58:26.216Z,6.00
2019-02-11T10:00:54.257Z,6.10
2019-02-11T10:03:22.100Z,6.20
2019-02-11T10:05:49.946Z,6.30
2019-02-11T10:08:17.946Z,6.50
2019-02-11T10:10:46.325Z,6.70
2019-02-11T10:13:14.146Z,6.70
2019-02-11T10:15:42.133Z,6.70
2019-02-11T10:18:10.256Z,6.70
2019-02-11T10:20:38.161Z,6.50
2019-02-11T10:23:06.090Z,6.30
2019-02-11T10:25:33.990Z,6.30
2019-02-11T10:28:01.870Z,6.20
2019-02-11T10:30:29.667Z,6.10
2019-02-11T10:32:57.524Z,6.10
2019-02-11T10:35:25.649Z,6.20
2019-02-11T10:37:53.561Z,6.10
2019-02-11T10:40:21.431Z,6.20
2019-02-11T10:42:49.282Z,6.20
2019-02-11T10:45:17.138Z,6.30
2019-02-11T10:47:44.962Z,6.40
2019-02-11T10:50:12.842Z,6.40
2019-02-11T10:52:40.690Z,6.40
2019-02-11T10:55:08.518Z,6.40
2019-02-11T10:57:36.341Z,6.40
2019-02-11T11:00:04.301Z,6.50
2019-02-11T11:02:32.256Z,6.50
2019-02-11T11:05:00.292Z,6.50
2019-02-11T11:07:28.351Z,6.50
2019-02-11T11:09:56.229Z,6.60
2019-02-11T11:12:24.070Z,6.60
2019-02-11T11:14:51.971Z,6.80
2019-02-11T11:17:19.950Z,6.80
2019-02-11T11:19:47.797Z,6.90
2019-02-11T11:22:15.638Z,7.00
2019-02-11T11:24:43.462Z,7.10
2019-02-11T11:27:11.324Z,7.00
2019-02-11T11:29:39.191Z,6.90
2019-02-11T11:32:07.064Z,7.00
2019-02-11T11:34:34.951Z,7.10
2019-02-11T11:37:03.044Z,7.20
2019-02-11T11:39:31.055Z,7.40
2019-02-11T11:41:58.910Z,7.50
2019-02-11T11:44:26.747Z,7.60
2019-02-11T11:46:54.571Z,7.60
2019-02-11T11:49:22.437Z,7.70
2019-02-11T11:51:50.383Z,7.70
2019-02-11T11:54:18.193Z,7.80
2019-02-11T11:56:46.046Z,7.80
2019-02-11T11:59:13.922Z,8.00
2019-02-11T12:01:41.817Z,8.00
2019-02-11T12:04:09.668Z,8.00
2019-02-11T12:06:37.642Z,8.00
2019-02-11T12:09:05.572Z,7.90
2019-02-11T12:11:33.496Z,7.90
2019-02-11T12:14:01.395Z,8.10
2019-02-11T12:16:29.333Z,8.30
2019-02-11T12:18:57.270Z,8.60
2019-02-11T12:21:25.187Z,9.00
2019-02-11T12:23:53.099Z,9.20
2019-02-11T12:26:21.646Z,9.70
2019-02-11T12:28:49.683Z,10.10
2019-02-11T12:31:17.573Z,9.70
2019-02-11T12:33:45.494Z,8.90
2019-02-11T12:36:13.353Z,8.90
2019-02-11T12:38:41.169Z,9.80
2019-02-11T12:41:09.015Z,10.30
2019-02-11T12:43:36.902Z,10.10
2019-02-11T12:46:04.754Z,9.90
2019-02-11T12:48:32.784Z,9.60
2019-02-11T12:51:00.688Z,9.30
2019-02-11T12:53:28.557Z,8.90
2019-02-11T12:55:56.406Z,8.60
2019-02-11T12:58:24.260Z,8.20
2019-02-11T13:00:52.103Z,8.10
2019-02-11T13:03:19.955Z,7.90
2019-02-11T13:05:47.804Z,7.90
2019-02-11T13:08:15.736Z,7.80
2019-02-11T13:10:43.592Z,7.70
2019-02-11T13:13:11.532Z,7.80
2019-02-11T13:16:00.000Z,7.80
2019-02-11T13:18:09.165Z,7.80
2019-02-11T13:20:37.174Z,7.80
2019-02-11T13:23:05.020Z,7.90
2019-02-11T13:25:32.888Z,7.80
2019-02-11T13:28:00.719Z,7.80
2019-02-11T13:30:28.568Z,7.80
2019-02-11T13:32:56.527Z,7.80
2019-02-11T13:35:24.430Z,7.80
2019-02-11T13:37:55.260Z,7.70
2019-02-11T13:40:21.811Z,7.70
2019-02-11T13:42:49.670Z,7.70
2019-02-11T13:45:17.594Z,7.60
2019-02-11T13:47:54.501Z,7.50
2019-02-11T13:50:15.176Z,7.50
2019-02-11T13:52:43.033Z,7.40
2019-02-11T13:55:10.952Z,7.20
2019-02-11T13:57:38.932Z,7.20
2019-02-11T14:00:08.416Z,7.10
2019-02-11T14:02:36.268Z,7.00
2019-02-11T14:05:04.257Z,7.00
2019-02-11T14:07:32.155Z,7.00
2019-02-11T14:10:02.374Z,6.90
2019-02-11T14:12:29.588Z,6.80
2019-02-11T14:14:57.419Z,6.80
2019-02-11T14:17:25.407Z,6.80
2019-02-11T14:19:53.268Z,6.80
2019-02-11T14:22:21.231Z,6.90
2019-02-11T14:24:49.174Z,6.90
2019-02-11T14:27:17.038Z,6.90
2019-02-11T14:29:44.941Z,7.00
2019-02-11T14:32:12.953Z,7.10
2019-02-11T14:34:40.905Z,7.10
2019-02-11T14:37:08.931Z,7.20
2019-02-11T14:39:36.757Z,7.20
2019-02-11T14:42:04.637Z,7.30
2019-02-11T14:44:32.515Z,7.40
2019-02-11T14:47:00.359Z,7.40
2019-02-11T14:49:28.204Z,7.40
2019-02-11T14:51:56.055Z,7.40
2019-02-11T14:54:23.908Z,7.30
2019-02-11T14:56:51.759Z,7.30
2019-02-11T14:59:19.570Z,7.20
2019-02-11T15:01:47.417Z,7.20
2019-02-11T15:04:15.256Z,7.20
2019-02-11T15:06:43.122Z,7.20
2019-02-11T15:09:11.042Z,7.10
2019-02-11T15:11:38.921Z,7.10
2019-02-11T15:14:06.760Z,7.10
2019-02-11T15:16:34.719Z,7.00
2019-02-11T15:19:02.584Z,7.00
2019-02-11T15:21:30.452Z,7.00
2019-02-11T15:23:58.295Z,6.90
2019-02-11T15:26:26.103Z,6.90
2019-02-11T15:28:54.024Z,7.00
2019-02-11T15:31:21.940Z,7.00
2019-02-11T15:33:49.778Z,6.90
2019-02-11T15:36:17.664Z,6.90
2019-02-11T15:38:45.513Z,6.80
2019-02-11T15:41:13.379Z,6.90
2019-02-11T15:43:41.241Z,6.80
2019-02-11T15:46:09.064Z,6.70
2019-02-11T15:48:42.974Z,6.70
2019-02-11T15:51:06.590Z,6.60
2019-02-11T15:53:34.664Z,6.70
2019-02-11T15:56:07.691Z,6.60
2019-02-11T15:58:32.158Z,6.60
2019-02-11T16:01:00.086Z,6.60
2019-02-11T16:03:28.000Z,6.60
2019-02-11T16:05:55.853Z,6.60
2019-02-11T16:08:23.724Z,6.50
2019-02-11T16:10:51.548Z,6.50
2019-02-11T16:13:19.444Z,6.50
2019-02-11T16:15:47.399Z,6.50
2019-02-11T16:18:15.370Z,6.40
2019-02-11T16:20:43.204Z,6.40
2019-02-11T16:23:11.154Z,6.40
2019-02-11T16:25:39.007Z,6.30
2019-02-11T16:28:06.842Z,6.30
2019-02-11T16:30:34.746Z,6.20
2019-02-11T16:33:02.727Z,6.20
2019-02-11T16:35:30.665Z,6.20
2019-02-11T16:37:58.527Z,6.20
2019-02-11T16:40:26.368Z,6.10
2019-02-11T16:42:54.225Z,6.10
2019-02-11T16:45:22.213Z,6.10
2019-02-11T16:47:50.052Z,6.10
2019-02-11T16:50:18.003Z,6.10
2019-02-11T16:52:45.868Z,6.00
2019-02-11T16:55:13.745Z,6.00
2019-02-11T16:57:41.586Z,6.00
2019-02-11T17:00:09.457Z,6.00
2019-02-11T17:02:37.282Z,6.00
2019-02-11T17:05:05.169Z,5.90
2019-02-11T17:07:41.366Z,6.00
2019-02-11T17:10:02.651Z,5.90
2019-02-11T17:12:30.520Z,6.00
2019-02-11T17:14:58.499Z,5.90
2019-02-11T17:17:26.371Z,5.90
2019-02-11T17:19:54.391Z,5.90
2019-02-11T17:22:22.411Z,5.80
2019-02-11T17:24:52.058Z,5.80
2019-02-11T17:27:19.912Z,5.80
2019-02-11T17:29:47.753Z,5.90
2019-02-11T17:32:15.621Z,6.00
2019-02-11T17:34:44.056Z,5.90
2019-02-11T17:37:12.065Z,5.90
2019-02-11T17:39:39.920Z,5.90
2019-02-11T17:42:07.770Z,5.90
2019-02-11T17:44:35.636Z,5.90
2019-02-11T17:47:03.515Z,5.90
2019-02-11T17:49:31.376Z,5.90
2019-02-11T17:51:59.219Z,5.80
2019-02-11T17:54:27.062Z,5.80
2019-02-11T17:56:55.036Z,5.70
2019-02-11T17:59:23.037Z,5.70
2019-02-11T18:01:50.975Z,5.80
2019-02-11T18:04:18.931Z,5.90
2019-02-11T18:06:47.074Z,5.90
2019-02-11T18:09:15.066Z,5.90
2019-02-11T18:11:42.999Z,5.90
2019-02-11T18:14:10.879Z,5.80
2019-02-11T18:16:38.799Z,5.80
2019-02-11T18:19:06.669Z,5.80
2019-02-11T18:21:34.817Z,5.80
2019-02-11T18:24:02.852Z,5.70
2019-02-11T18:26:30.775Z,5.70
2019-02-11T18:28:58.705Z,5.70
2019-02-11T18:31:26.650Z,5.80
2019-02-11T18:33:54.627Z,5.70
2019-02-11T18:36:22.653Z,5.60
2019-02-11T18:38:50.693Z,5.60
2019-02-11T18:41:18.682Z,5.60
2019-02-11T18:43:46.623Z,5.60
2019-02-11T18:46:14.524Z,5.50
2019-02-11T18:48:42.435Z,5.40
2019-02-11T18:51:10.354Z,5.40
2019-02-11T18:53:38.244Z,5.30
2019-02-11T18:56:06.283Z,5.20
2019-02-11T18:58:34.254Z,5.20
2019-02-11T19:01:02.162Z,5.00
2019-02-11T19:03:30.140Z,5.00
2019-02-11T19:05:58.120Z,4.90
2019-02-11T19:08:26.093Z,4.90
2019-02-11T19:10:54.022Z,4.80
2019-02-11T19:13:22.044Z,4.70
2019-02-11T19:15:50.027Z,4.70
2019-02-11T19:24:59.102Z,4.60
2019-02-11T19:27:37.486Z,4.60
2019-02-11T19:30:14.769Z,4.60
2019-02-11T19:32:42.736Z,4.70
2019-02-11T19:35:10.780Z,4.70
2019-02-11T19:37:38.677Z,4.70
2019-02-11T19:40:06.642Z,4.70
2019-02-11T19:42:34.714Z,4.70
2019-02-11T19:45:02.598Z,4.70
2019-02-11T19:47:30.558Z,4.70
2019-02-11T19:49:58.411Z,4.70
2019-02-11T19:52:26.296Z,4.70
2019-02-11T19:54:54.134Z,4.70
2019-02-11T19:57:21.976Z,4.70
2019-02-11T19:59:49.825Z,4.60
2019-02-11T20:02:17.699Z,4.60
2019-02-11T20:04:45.547Z,4.50
2019-02-11T20:07:13.482Z,4.50
2019-02-11T20:09:41.337Z,4.40
2019-02-11T20:12:09.238Z,4.30
2019-02-11T20:14:37.154Z,4.30
2019-02-11T20:17:05.015Z,4.20
2019-02-11T20:19:33.156Z,4.10
2019-02-11T20:22:01.086Z,4.00
2019-02-11T20:24:28.958Z,3.90
2019-02-11T20:26:56.782Z,3.80
2019-02-11T20:29:24.686Z,3.70
2019-02-11T20:31:52.565Z,3.60
2019-02-11T20:34:20.516Z,3.50
2019-02-11T20:36:48.356Z,3.40
2019-02-11T20:39:16.312Z,3.30
2019-02-11T20:41:44.151Z,3.20
2019-02-11T20:44:12.056Z,3.20
2019-02-11T20:46:39.933Z,3.10
2019-02-11T20:49:07.918Z,3.10
2019-02-11T20:51:35.798Z,3.10
2019-02-11T20:54:03.632Z,3.00
2019-02-11T20:56:31.499Z,3.00
2019-02-11T20:58:59.350Z,2.90
2019-02-11T21:01:27.186Z,2.80
2019-02-11T21:03:55.077Z,2.80
2019-02-11T21:06:22.955Z,2.70
2019-02-11T21:08:50.811Z,2.70
2019-02-11T21:11:18.671Z,2.60
2019-02-11T21:13:46.549Z,2.60
2019-02-11T21:16:14.610Z,2.50
2019-02-11T21:18:42.589Z,2.40
2019-02-11T21:21:13.315Z,2.40
2019-02-11T21:23:41.275Z,2.30
2019-02-11T21:26:09.205Z,2.30
2019-02-11T21:28:37.182Z,2.30
2019-02-11T21:31:05.127Z,2.30
2019-02-11T21:33:33.002Z,2.30
2019-02-11T21:36:00.880Z,2.30
2019-02-11T21:38:28.838Z,2.40
2019-02-11T21:40:56.718Z,2.30
2019-02-11T21:43:24.676Z,2.30
2019-02-11T21:45:52.573Z,2.30
2019-02-11T21:48:20.533Z,2.30
2019-02-11T21:50:48.366Z,2.30
2019-02-11T21:53:16.250Z,2.30
2019-02-11T21:55:44.093Z,2.30
2019-02-11T21:58:11.987Z,2.20
2019-02-11T22:00:39.978Z,2.20
2019-02-11T22:03:07.837Z,2.20
2019-02-11T22:05:35.746Z,2.30
2019-02-11T22:08:03.616Z,2.20
2019-02-11T22:13:40.548Z,2.20
2019-02-11T22:16:08.408Z,2.20
2019-02-11T22:18:36.314Z,2.10
2019-02-11T22:21:04.175Z,2.00
2019-02-11T22:23:32.043Z,2.00
2019-02-11T22:25:59.898Z,2.00
2019-02-11T22:28:27.792Z,2.00
2019-02-11T22:30:55.664Z,1.90
2019-02-11T22:33:23.532Z,1.90
2019-02-11T22:35:51.338Z,1.90
2019-02-11T22:38:19.194Z,1.90
2019-02-11T22:40:47.003Z,1.80
2019-02-11T22:43:14.955Z,1.70
2019-02-11T22:45:42.806Z,1.70
2019-02-11T22:48:10.645Z,1.60
2019-02-11T22:50:43.166Z,1.60
2019-02-11T22:53:08.070Z,1.60
2019-02-11T22:55:35.907Z,1.50
2019-02-11T22:58:03.736Z,1.50
2019-02-11T23:00:48.705Z,1.40
2019-02-11T23:03:16.330Z,1.30
2019-02-11T23:05:44.191Z,1.30
2019-02-11T23:08:12.097Z,1.30
2019-02-11T23:10:39.926Z,1.20
2019-02-11T23:13:07.789Z,1.20
2019-02-11T23:15:35.752Z,1.10
2019-02-11T23:18:03.669Z,1.10
2019-02-11T23:20:31.535Z,1.10
2019-02-11T23:22:59.372Z,1.00
2019-02-11T23:25:27.182Z,1.00
2019-02-11T23:27:55.031Z,1.00
2019-02-11T23:30:22.925Z,0.90
2019-02-11T23:32:50.778Z,0.90
2019-02-11T23:35:18.615Z,0.90
2019-02-11T23:37:46.486Z,0.80
2019-02-11T23:40:14.355Z,0.80
2019-02-11T23:42:42.262Z,0.70
2019-02-11T23:45:10.087Z,0.70
2019-02-11T23:47:37.956Z,0.60
2019-02-11T23:50:05.791Z,0.50
2019-02-11T23:52:33.642Z,0.50
2019-02-11T23:55:01.512Z,0.50
2019-02-11T23:57:29.333Z,0.40
2019-02-11T23:59:57.261Z,0.40
